createdAt,value
2023-11-28T00:00:02.417Z,2.81
2023-11-28T00:03:00.428Z,2.80
2023-11-28T00:05:58.106Z,2.81
2023-11-28T00:08:55.925Z,2.81
2023-11-28T00:11:53.324Z,2.81
2023-11-28T00:14:51.539Z,2.82
2023-11-28T00:17:49.084Z,2.82
2023-11-28T00:20:46.819Z,2.82
2023-11-28T00:23:44.837Z,2.82
2023-11-28T00:26:43.327Z,2.83
2023-11-28T00:29:40.729Z,2.83
2023-11-28T00:32:38.554Z,2.83
2023-11-28T00:35:36.225Z,2.83
2023-11-28T00:38:33.813Z,2.84
2023-11-28T00:41:31.220Z,2.84
2023-11-28T00:44:31.872Z,2.87
2023-11-28T00:47:29.363Z,2.90
2023-11-28T00:50:27.329Z,2.93
2023-11-28T00:53:24.983Z,2.94
2023-11-28T00:56:22.752Z,2.93
2023-11-28T00:59:20.161Z,2.92
2023-11-28T01:02:17.949Z,2.92
2023-11-28T01:05:16.144Z,2.91
2023-11-28T01:08:13.930Z,2.91
2023-11-28T01:11:11.446Z,2.92
2023-11-28T01:14:11.756Z,2.92
2023-11-28T01:17:09.232Z,2.92
2023-11-28T01:20:06.993Z,2.94
2023-11-28T01:23:05.417Z,2.94
2023-11-28T01:26:03.906Z,2.94
2023-11-28T01:29:01.737Z,2.92
2023-11-28T01:31:59.624Z,2.92
2023-11-28T01:34:58.940Z,2.93
2023-11-28T01:37:59.551Z,2.94
2023-11-28T01:40:58.054Z,2.94
2023-11-28T01:43:55.492Z,2.93
2023-11-28T01:46:53.185Z,2.92
2023-11-28T01:49:50.971Z,2.91
2023-11-28T01:52:48.783Z,2.87
2023-11-28T01:55:46.306Z,2.83
2023-11-28T01:58:44.117Z,2.81
2023-11-28T02:01:41.873Z,2.80
2023-11-28T02:04:39.359Z,2.80
2023-11-28T02:07:37.021Z,2.79
2023-11-28T02:10:37.408Z,2.79
2023-11-28T02:13:35.481Z,2.79
2023-11-28T02:16:33.179Z,2.78
2023-11-28T02:19:30.696Z,2.77
2023-11-28T02:22:28.329Z,2.75
2023-11-28T02:25:26.516Z,2.75
2023-11-28T02:28:25.509Z,2.74
2023-11-28T02:31:23.372Z,2.73
2023-11-28T02:34:21.157Z,2.72
2023-11-28T02:37:18.806Z,2.71
2023-11-28T02:40:16.473Z,2.72
2023-11-28T02:43:14.073Z,2.73
2023-11-28T02:46:11.746Z,2.74
2023-11-28T02:49:09.142Z,2.74
2023-11-28T02:52:06.850Z,2.75
2023-11-28T02:55:05.132Z,2.75
2023-11-28T02:58:02.908Z,2.75
2023-11-28T03:01:00.685Z,2.76
2023-11-28T03:03:58.223Z,2.77
2023-11-28T03:06:55.976Z,2.79
2023-11-28T03:09:53.748Z,2.79
2023-11-28T03:12:51.150Z,2.80
2023-11-28T03:15:48.875Z,2.81
2023-11-28T03:18:46.305Z,2.81
2023-11-28T03:21:43.985Z,2.81
2023-11-28T03:24:41.982Z,2.81
2023-11-28T03:27:39.630Z,2.81
2023-11-28T03:30:37.091Z,2.82
2023-11-28T03:33:34.756Z,2.82
2023-11-28T03:36:32.128Z,2.83
2023-11-28T03:39:29.899Z,2.85
2023-11-28T03:42:27.280Z,2.85
2023-11-28T03:45:25.017Z,2.86
2023-11-28T03:48:22.413Z,2.85
2023-11-28T03:51:20.318Z,2.85
2023-11-28T03:54:17.691Z,2.85
2023-11-28T03:57:15.668Z,2.85
2023-11-28T04:00:13.070Z,2.85
2023-11-28T04:03:11.003Z,2.85
2023-11-28T04:06:09.284Z,2.84
2023-11-28T04:09:07.033Z,2.84
2023-11-28T04:12:05.028Z,2.84
2023-11-28T04:15:02.877Z,2.84
2023-11-28T04:18:00.393Z,2.84
2023-11-28T04:20:58.118Z,2.82
2023-11-28T04:23:55.862Z,2.81
2023-11-28T04:26:53.246Z,2.80
2023-11-28T04:29:50.972Z,2.81
2023-11-28T04:32:48.697Z,2.80
2023-11-28T04:35:46.439Z,2.80
2023-11-28T04:38:44.077Z,2.80
2023-11-28T04:41:42.076Z,2.80
2023-11-28T04:44:39.470Z,2.80
2023-11-28T04:47:37.289Z,2.80
2023-11-28T04:50:34.812Z,2.82
2023-11-28T04:53:32.465Z,2.82
2023-11-28T04:56:29.879Z,2.83
2023-11-28T04:59:27.675Z,2.83
2023-11-28T05:02:25.201Z,2.84
2023-11-28T05:05:23.307Z,2.85
2023-11-28T05:08:21.064Z,2.86
2023-11-28T05:11:18.730Z,2.86
2023-11-28T05:14:16.279Z,2.86
2023-11-28T05:17:14.610Z,2.86
2023-11-28T05:20:12.363Z,2.86
2023-11-28T05:23:09.894Z,2.86
2023-11-28T05:26:07.790Z,2.85
2023-11-28T05:29:05.557Z,2.84
2023-11-28T05:32:05.862Z,2.82
2023-11-28T05:35:04.297Z,2.83
2023-11-28T05:38:02.500Z,2.83
2023-11-28T05:41:00.734Z,2.83
2023-11-28T05:43:58.951Z,2.83
2023-11-28T05:46:56.576Z,2.84
2023-11-28T05:49:54.660Z,2.85
2023-11-28T05:52:52.466Z,2.85
2023-11-28T05:55:50.307Z,2.85
2023-11-28T05:58:47.801Z,2.85
2023-11-28T06:01:45.561Z,2.86
2023-11-28T06:04:43.575Z,2.86
2023-11-28T06:07:41.408Z,2.86
2023-11-28T06:10:38.874Z,2.85
2023-11-28T06:13:37.376Z,2.84
2023-11-28T06:16:35.158Z,2.85
2023-11-28T06:19:33.273Z,2.86
2023-11-28T06:22:30.941Z,2.84
2023-11-28T06:25:28.364Z,2.85
2023-11-28T06:28:26.103Z,2.85
2023-11-28T06:31:23.572Z,2.86
2023-11-28T06:34:21.695Z,2.86
2023-11-28T06:37:19.110Z,2.86
2023-11-28T06:40:17.745Z,2.87
2023-11-28T06:43:15.520Z,2.88
2023-11-28T06:46:14.283Z,2.88
2023-11-28T06:49:12.107Z,2.88
2023-11-28T06:52:09.647Z,2.89
2023-11-28T06:55:07.243Z,2.91
2023-11-28T06:58:04.987Z,2.92
2023-11-28T07:01:02.436Z,2.93
2023-11-28T07:04:00.099Z,2.94
2023-11-28T07:06:57.848Z,2.95
2023-11-28T07:09:56.200Z,2.97
2023-11-28T07:12:53.826Z,2.98
2023-11-28T07:15:51.285Z,2.99
2023-11-28T07:18:49.064Z,3.00
2023-11-28T07:21:46.510Z,3.01
2023-11-28T07:24:44.196Z,3.04
2023-11-28T07:27:41.833Z,3.06
2023-11-28T07:30:39.600Z,3.08
2023-11-28T07:33:38.208Z,3.09
2023-11-28T07:36:35.614Z,3.11
2023-11-28T07:39:33.873Z,3.14
2023-11-28T07:42:31.324Z,3.17
2023-11-28T07:45:29.054Z,3.19
2023-11-28T07:48:26.502Z,3.22
2023-11-28T07:51:24.299Z,3.25
2023-11-28T07:54:23.477Z,3.27
2023-11-28T07:57:20.911Z,3.29
2023-11-28T08:00:21.732Z,3.32
2023-11-28T08:03:19.483Z,3.35
2023-11-28T08:06:19.209Z,3.38
2023-11-28T08:09:16.631Z,3.41
2023-11-28T08:12:14.498Z,3.43
2023-11-28T08:15:12.256Z,3.46
2023-11-28T08:18:09.699Z,3.50
2023-11-28T08:21:07.621Z,3.52
2023-11-28T08:24:05.373Z,3.53
2023-11-28T08:27:02.952Z,3.55
2023-11-28T08:30:04.008Z,3.58
2023-11-28T08:33:03.251Z,3.61
2023-11-28T08:36:00.828Z,3.66
2023-11-28T08:38:58.587Z,3.71
2023-11-28T08:41:56.858Z,3.76
2023-11-28T08:44:54.308Z,3.82
2023-11-28T08:47:52.056Z,3.90
2023-11-28T08:50:49.531Z,4.00
2023-11-28T08:53:47.866Z,4.08
2023-11-28T08:56:45.581Z,4.17
2023-11-28T08:59:43.308Z,4.26
2023-11-28T09:02:41.228Z,4.36
2023-11-28T09:05:39.070Z,4.43
2023-11-28T09:08:38.155Z,4.52
2023-11-28T09:11:37.258Z,4.60
2023-11-28T09:14:46.921Z,4.70
2023-11-28T09:17:49.328Z,4.81
2023-11-28T09:20:46.860Z,4.89
2023-11-28T09:23:44.670Z,4.97
2023-11-28T09:26:42.106Z,5.04
2023-11-28T09:29:39.830Z,5.12
2023-11-28T09:32:37.379Z,5.17
2023-11-28T09:35:35.421Z,5.21
2023-11-28T09:38:33.051Z,5.28
2023-11-28T09:41:36.335Z,5.33
2023-11-28T09:44:40.177Z,5.40
2023-11-28T09:47:38.037Z,5.47
2023-11-28T09:50:35.621Z,5.54
2023-11-28T09:53:35.739Z,5.61
2023-11-28T09:56:33.279Z,5.69
2023-11-28T09:59:31.064Z,5.80
2023-11-28T10:02:28.672Z,5.91
2023-11-28T10:05:26.481Z,5.99
2023-11-28T10:08:24.013Z,6.08
2023-11-28T10:11:21.785Z,6.16
2023-11-28T10:14:19.413Z,6.24
2023-11-28T10:17:17.442Z,6.30
2023-11-28T10:20:15.420Z,6.36
2023-11-28T10:23:13.070Z,6.42
2023-11-28T10:26:12.687Z,6.47
2023-11-28T10:29:10.390Z,6.54
2023-11-28T10:32:08.651Z,6.58
2023-11-28T10:35:06.441Z,6.62
2023-11-28T10:38:04.465Z,6.67
2023-11-28T10:41:02.337Z,6.71
2023-11-28T10:44:00.084Z,6.77
2023-11-28T10:46:58.161Z,6.83
2023-11-28T10:49:57.001Z,6.89
2023-11-28T10:52:54.519Z,6.96
2023-11-28T10:55:52.559Z,7.00
2023-11-28T10:58:50.248Z,7.02
2023-11-28T11:01:48.478Z,7.05
2023-11-28T11:04:46.233Z,7.11
2023-11-28T11:07:44.049Z,7.17
2023-11-28T11:10:41.645Z,7.21
2023-11-28T11:13:39.594Z,7.24
2023-11-28T11:16:36.981Z,7.27
2023-11-28T11:19:34.603Z,7.31
2023-11-28T11:22:31.978Z,7.35
2023-11-28T11:25:30.247Z,7.37
2023-11-28T11:28:27.831Z,7.37
2023-11-28T11:31:25.544Z,7.42
2023-11-28T11:34:23.338Z,7.45
2023-11-28T11:37:21.235Z,7.49
2023-11-28T11:40:19.093Z,7.53
2023-11-28T11:43:16.818Z,7.58
2023-11-28T11:46:15.258Z,7.65
2023-11-28T11:49:13.083Z,7.71
2023-11-28T11:52:10.481Z,7.76
2023-11-28T11:55:08.243Z,7.81
2023-11-28T11:58:05.990Z,7.86
2023-11-28T12:01:05.376Z,7.90
2023-11-28T12:04:04.540Z,7.96
2023-11-28T12:07:02.331Z,8.00
2023-11-28T12:09:59.759Z,7.99
2023-11-28T12:12:57.790Z,7.95
2023-11-28T12:15:55.184Z,7.87
2023-11-28T12:18:52.917Z,7.78
2023-11-28T12:21:50.313Z,7.72
2023-11-28T12:24:47.969Z,7.69
2023-11-28T12:27:45.400Z,7.68
2023-11-28T12:30:44.570Z,7.63
2023-11-28T12:33:42.056Z,7.58
2023-11-28T12:36:39.667Z,7.51
2023-11-28T12:39:37.080Z,7.45
2023-11-28T12:42:34.740Z,7.41
2023-11-28T12:45:33.997Z,7.38
2023-11-28T12:48:31.721Z,7.34
2023-11-28T12:51:30.401Z,7.33
2023-11-28T12:54:27.813Z,7.31
2023-11-28T12:57:26.546Z,7.27
2023-11-28T13:00:24.505Z,7.21
2023-11-28T13:03:22.131Z,7.16
2023-11-28T13:06:19.873Z,7.11
2023-11-28T13:09:17.275Z,7.07
2023-11-28T13:12:15.093Z,7.03
2023-11-28T13:15:16.570Z,7.00
2023-11-28T13:18:14.727Z,6.97
2023-11-28T13:21:12.531Z,6.97
2023-11-28T13:24:13.395Z,6.97
2023-11-28T13:27:11.190Z,6.98
2023-11-28T13:30:11.163Z,6.98
2023-11-28T13:33:10.688Z,6.98
2023-11-28T13:36:08.407Z,7.01
2023-11-28T13:39:07.081Z,7.06
2023-11-28T13:42:05.252Z,7.09
2023-11-28T13:45:02.690Z,7.12
2023-11-28T13:48:00.442Z,7.12
2023-11-28T13:50:58.246Z,7.11
2023-11-28T13:53:56.372Z,7.08
2023-11-28T13:56:54.188Z,7.05
2023-11-28T13:59:51.637Z,7.03
2023-11-28T14:02:49.726Z,6.99
2023-11-28T14:05:47.642Z,6.96
2023-11-28T14:08:45.216Z,6.93
2023-11-28T14:11:42.913Z,6.90
2023-11-28T14:14:50.508Z,6.90
2023-11-28T14:17:54.459Z,6.88
2023-11-28T14:20:54.086Z,6.86
2023-11-28T14:23:51.659Z,6.84
2023-11-28T14:26:50.086Z,6.82
2023-11-28T14:29:47.741Z,6.81
2023-11-28T14:32:45.466Z,6.77
2023-11-28T14:35:43.344Z,6.73
2023-11-28T14:38:40.979Z,6.67
2023-11-28T14:41:39.134Z,6.64
2023-11-28T14:44:36.573Z,6.61
2023-11-28T14:47:34.306Z,6.58
2023-11-28T14:50:32.475Z,6.55
2023-11-28T14:53:30.158Z,6.52
2023-11-28T14:56:28.317Z,6.48
2023-11-28T14:59:26.705Z,6.44
2023-11-28T15:02:24.516Z,6.41
2023-11-28T15:05:22.464Z,6.37
2023-11-28T15:08:20.094Z,6.34
2023-11-28T15:11:17.975Z,6.29
2023-11-28T15:14:15.459Z,6.24
2023-11-28T15:17:13.384Z,6.20
2023-11-28T15:20:11.033Z,6.16
2023-11-28T15:23:11.298Z,6.12
2023-11-28T15:26:09.544Z,6.08
2023-11-28T15:29:09.186Z,6.05
2023-11-28T15:32:07.779Z,6.03
2023-11-28T15:35:09.599Z,5.98
2023-11-28T15:38:08.724Z,5.95
2023-11-28T15:41:06.596Z,5.92
2023-11-28T15:44:04.092Z,5.89
2023-11-28T15:47:03.719Z,5.85
2023-11-28T15:50:01.822Z,5.81
2023-11-28T15:52:59.931Z,5.77
2023-11-28T15:55:57.560Z,5.73
2023-11-28T15:58:55.286Z,5.69
2023-11-28T16:01:52.830Z,5.64
2023-11-28T16:04:50.498Z,5.59
2023-11-28T16:07:49.711Z,5.54
2023-11-28T16:10:47.142Z,5.49
2023-11-28T16:13:44.762Z,5.46
2023-11-28T16:16:43.059Z,5.42
2023-11-28T16:19:40.644Z,5.37
2023-11-28T16:22:38.303Z,5.32
2023-11-28T16:25:35.916Z,5.25
2023-11-28T16:28:35.124Z,5.18
2023-11-28T16:31:33.138Z,5.11
2023-11-28T16:34:30.546Z,5.01
2023-11-28T16:37:28.329Z,4.88
2023-11-28T16:40:25.744Z,4.73
2023-11-28T16:43:24.347Z,4.62
2023-11-28T16:46:21.759Z,4.53
2023-11-28T16:49:19.511Z,4.45
2023-11-28T16:52:16.881Z,4.37
2023-11-28T16:55:17.037Z,4.30
2023-11-28T16:58:15.677Z,4.24
2023-11-28T17:01:14.272Z,4.20
2023-11-28T17:04:11.917Z,4.12
2023-11-28T17:07:09.695Z,4.08
2023-11-28T17:10:07.261Z,4.05
2023-11-28T17:13:05.478Z,4.00
2023-11-28T17:16:03.314Z,3.96
2023-11-28T17:19:04.235Z,3.94
2023-11-28T17:22:02.413Z,3.93
2023-11-28T17:25:00.739Z,3.93
2023-11-28T17:27:58.478Z,3.90
2023-11-28T17:30:56.590Z,3.87
2023-11-28T17:33:54.188Z,3.85
2023-11-28T17:36:51.614Z,3.82
2023-11-28T17:39:49.330Z,3.79
2023-11-28T17:42:47.381Z,3.77
2023-11-28T17:45:45.087Z,3.75
2023-11-28T17:48:44.486Z,3.72
2023-11-28T17:51:42.868Z,3.68
2023-11-28T17:54:40.277Z,3.65
2023-11-28T17:57:38.081Z,3.59
2023-11-28T18:00:35.476Z,3.55
2023-11-28T18:03:33.583Z,3.52
2023-11-28T18:06:31.231Z,3.48
2023-11-28T18:09:29.117Z,3.45
2023-11-28T18:12:27.441Z,3.42
2023-11-28T18:15:29.583Z,3.41
2023-11-28T18:18:30.609Z,3.39
2023-11-28T18:21:28.601Z,3.36
2023-11-28T18:24:26.501Z,3.32
2023-11-28T18:27:23.957Z,3.30
2023-11-28T18:30:21.632Z,3.34
2023-11-28T18:33:19.247Z,3.37
2023-11-28T18:36:17.027Z,3.42
2023-11-28T18:39:15.790Z,3.44
2023-11-28T18:42:13.800Z,3.48
2023-11-28T18:45:11.517Z,3.48
2023-11-28T18:48:09.525Z,3.49
2023-11-28T18:51:08.444Z,3.49
2023-11-28T18:54:07.152Z,3.50
2023-11-28T18:57:06.646Z,3.51
2023-11-28T19:00:06.843Z,3.52
2023-11-28T19:03:06.242Z,3.51
2023-11-28T19:06:06.110Z,3.50
2023-11-28T19:09:06.109Z,3.47
2023-11-28T19:12:05.915Z,3.42
2023-11-28T19:15:05.804Z,3.38
2023-11-28T19:18:04.745Z,3.34
2023-11-28T19:21:05.006Z,3.32
2023-11-28T19:24:03.632Z,3.30
2023-11-28T19:27:03.069Z,3.29
2023-11-28T19:30:01.870Z,3.27
2023-11-28T19:33:00.901Z,3.27
2023-11-28T19:36:00.807Z,3.25
2023-11-28T19:39:01.444Z,3.24
2023-11-28T19:42:00.391Z,3.21
2023-11-28T19:44:59.920Z,3.17
2023-11-28T19:47:59.209Z,3.12
2023-11-28T19:50:58.612Z,3.09
2023-11-28T19:53:57.398Z,3.06
2023-11-28T19:56:56.498Z,3.03
2023-11-28T19:59:56.116Z,3.01
2023-11-28T20:02:55.962Z,2.98
2023-11-28T20:05:55.384Z,2.95
2023-11-28T20:08:55.022Z,2.92
2023-11-28T20:11:54.808Z,2.89
2023-11-28T20:14:54.260Z,2.87
2023-11-28T20:17:54.475Z,2.83
2023-11-28T20:20:54.421Z,2.79
2023-11-28T20:23:55.962Z,2.77
2023-11-28T20:26:56.047Z,2.73
2023-11-28T20:29:55.881Z,2.71
2023-11-28T20:32:55.633Z,2.68
2023-11-28T20:35:55.778Z,2.67
2023-11-28T20:38:56.402Z,2.64
2023-11-28T20:41:56.220Z,2.61
2023-11-28T20:44:55.699Z,2.59
2023-11-28T20:47:55.421Z,2.56
2023-11-28T20:50:55.265Z,2.51
2023-11-28T20:53:54.871Z,2.48
2023-11-28T20:56:53.874Z,2.43
2023-11-28T20:59:54.588Z,2.39
2023-11-28T21:02:52.352Z,2.36
2023-11-28T21:05:50.624Z,2.35
2023-11-28T21:08:48.497Z,2.33
2023-11-28T21:11:45.908Z,2.31
2023-11-28T21:14:43.581Z,2.29
2023-11-28T21:17:41.144Z,2.28
2023-11-28T21:20:38.960Z,2.26
2023-11-28T21:23:36.415Z,2.23
2023-11-28T21:26:34.352Z,2.21
2023-11-28T21:29:31.787Z,2.18
2023-11-28T21:32:29.516Z,2.16
2023-11-28T21:35:26.987Z,2.13
2023-11-28T21:38:25.258Z,2.11
2023-11-28T21:41:22.757Z,2.10
2023-11-28T21:44:21.227Z,2.09
2023-11-28T21:47:22.262Z,2.08
2023-11-28T21:50:21.418Z,2.09
2023-11-28T21:53:20.801Z,2.09
2023-11-28T21:56:18.604Z,2.09
2023-11-28T21:59:16.383Z,2.09
2023-11-28T22:02:13.851Z,2.09
2023-11-28T22:05:11.750Z,2.08
2023-11-28T22:08:10.097Z,2.08
2023-11-28T22:11:08.615Z,2.05
2023-11-28T22:14:06.247Z,2.01
2023-11-28T22:17:04.323Z,1.98
2023-11-28T22:20:02.092Z,1.94
2023-11-28T22:22:59.556Z,1.90
2023-11-28T22:25:57.304Z,1.87
2023-11-28T22:28:54.682Z,1.84
2023-11-28T22:31:52.389Z,1.82
2023-11-28T22:34:50.805Z,1.78
2023-11-28T22:37:51.012Z,1.74
2023-11-28T22:40:49.752Z,1.69
2023-11-28T22:43:47.356Z,1.65
2023-11-28T22:46:44.770Z,1.60
2023-11-28T22:49:42.819Z,1.56
2023-11-28T22:52:40.242Z,1.53
2023-11-28T22:55:38.726Z,1.48
2023-11-28T22:58:36.112Z,1.43
2023-11-28T23:01:33.825Z,1.40
2023-11-28T23:04:31.674Z,1.39
2023-11-28T23:07:29.404Z,1.37
2023-11-28T23:10:26.788Z,1.35
2023-11-28T23:13:24.718Z,1.32
2023-11-28T23:16:22.243Z,1.29
2023-11-28T23:19:19.916Z,1.27
2023-11-28T23:22:17.330Z,1.24
2023-11-28T23:25:14.950Z,1.21
2023-11-28T23:28:12.385Z,1.17
2023-11-28T23:31:10.035Z,1.14
2023-11-28T23:34:09.851Z,1.13
2023-11-28T23:37:08.421Z,1.12
2023-11-28T23:40:06.507Z,1.09
2023-11-28T23:43:04.865Z,1.08
2023-11-28T23:46:02.307Z,1.07
2023-11-28T23:49:05.366Z,1.06
2023-11-28T23:52:03.059Z,1.03
2023-11-28T23:55:00.794Z,1.03
2023-11-28T23:57:58.538Z,1.04
